sensor_id;sensor_type;location;lat;lon;timestamp;P1;durP1;ratioP1;P2;durP2;ratioP2
11957;SDS011;6039;52.576;13.348;2023-07-30T00:00:23;5.80;;;3.87;;
11957;SDS011;6039;52.576;13.348;2023-07-30T00:05:26;5.70;;;4.13;;
11957;SDS011;6039;52.576;13.348;2023-07-30T00:10:33;4.50;;;3.97;;
11957;SDS011;6039;52.576;13.348;2023-07-30T00:15:38;4.73;;;3.57;;
11957;SDS011;6039;52.576;13.348;2023-07-30T00:20:42;4.57;;;3.47;;
11957;SDS011;6039;52.576;13.348;2023-07-30T00:25:48;5.10;;;3.93;;
11957;SDS011;6039;52.576;13.348;2023-07-30T00:30:52;4.07;;;3.47;;
11957;SDS011;6039;52.576;13.348;2023-07-30T00:35:56;4.03;;;3.20;;
11957;SDS011;6039;52.576;13.348;2023-07-30T00:41:02;4.20;;;3.63;;
11957;SDS011;6039;52.576;13.348;2023-07-30T00:46:05;4.00;;;3.33;;
11957;SDS011;6039;52.576;13.348;2023-07-30T00:51:09;3.70;;;3.07;;
11957;SDS011;6039;52.576;13.348;2023-07-30T00:56:18;4.10;;;3.33;;
11957;SDS011;6039;52.576;13.348;2023-07-30T01:01:21;5.10;;;3.07;;
11957;SDS011;6039;52.576;13.348;2023-07-30T01:06:25;3.77;;;3.10;;
11957;SDS011;6039;52.576;13.348;2023-07-30T01:11:32;3.10;;;2.80;;
11957;SDS011;6039;52.576;13.348;2023-07-30T01:16:36;4.10;;;3.43;;
11957;SDS011;6039;52.576;13.348;2023-07-30T01:21:43;4.27;;;3.27;;
11957;SDS011;6039;52.576;13.348;2023-07-30T01:26:48;4.47;;;3.17;;
11957;SDS011;6039;52.576;13.348;2023-07-30T01:32:00;4.30;;;3.47;;
11957;SDS011;6039;52.576;13.348;2023-07-30T01:37:11;4.73;;;3.57;;
11957;SDS011;6039;52.576;13.348;2023-07-30T01:42:16;4.53;;;3.47;;
11957;SDS011;6039;52.576;13.348;2023-07-30T01:47:20;5.33;;;3.00;;
11957;SDS011;6039;52.576;13.348;2023-07-30T01:52:26;3.43;;;3.13;;
11957;SDS011;6039;52.576;13.348;2023-07-30T01:57:31;5.40;;;3.80;;
11957;SDS011;6039;52.576;13.348;2023-07-30T02:02:35;4.30;;;3.50;;
11957;SDS011;6039;52.576;13.348;2023-07-30T02:07:41;3.33;;;2.90;;
11957;SDS011;6039;52.576;13.348;2023-07-30T02:12:45;4.30;;;3.70;;
11957;SDS011;6039;52.576;13.348;2023-07-30T02:17:49;4.40;;;3.70;;
11957;SDS011;6039;52.576;13.348;2023-07-30T02:22:55;4.23;;;3.47;;
11957;SDS011;6039;52.576;13.348;2023-07-30T02:27:59;4.83;;;3.20;;
11957;SDS011;6039;52.576;13.348;2023-07-30T02:33:03;5.07;;;3.60;;
11957;SDS011;6039;52.576;13.348;2023-07-30T02:38:10;4.63;;;3.87;;
11957;SDS011;6039;52.576;13.348;2023-07-30T02:43:14;6.00;;;3.90;;
11957;SDS011;6039;52.576;13.348;2023-07-30T02:48:18;4.53;;;4.00;;
11957;SDS011;6039;52.576;13.348;2023-07-30T02:53:24;7.17;;;3.80;;
11957;SDS011;6039;52.576;13.348;2023-07-30T02:58:28;3.87;;;3.20;;
11957;SDS011;6039;52.576;13.348;2023-07-30T03:03:32;4.33;;;3.53;;
11957;SDS011;6039;52.576;13.348;2023-07-30T03:08:39;4.07;;;3.50;;
11957;SDS011;6039;52.576;13.348;2023-07-30T03:13:43;4.37;;;3.60;;
11957;SDS011;6039;52.576;13.348;2023-07-30T03:18:47;4.27;;;3.37;;
11957;SDS011;6039;52.576;13.348;2023-07-30T03:23:53;3.63;;;3.03;;
11957;SDS011;6039;52.576;13.348;2023-07-30T03:28:57;3.83;;;3.20;;
11957;SDS011;6039;52.576;13.348;2023-07-30T03:34:01;3.90;;;3.50;;
11957;SDS011;6039;52.576;13.348;2023-07-30T03:39:07;4.73;;;3.30;;
11957;SDS011;6039;52.576;13.348;2023-07-30T03:44:12;5.50;;;4.43;;
11957;SDS011;6039;52.576;13.348;2023-07-30T03:49:15;4.03;;;3.60;;
11957;SDS011;6039;52.576;13.348;2023-07-30T03:54:22;4.50;;;3.90;;
11957;SDS011;6039;52.576;13.348;2023-07-30T03:59:26;4.47;;;4.00;;
11957;SDS011;6039;52.576;13.348;2023-07-30T04:04:30;4.83;;;4.20;;
11957;SDS011;6039;52.576;13.348;2023-07-30T04:09:37;4.57;;;3.77;;
11957;SDS011;6039;52.576;13.348;2023-07-30T04:14:41;4.17;;;3.60;;
11957;SDS011;6039;52.576;13.348;2023-07-30T04:19:45;4.00;;;3.60;;
11957;SDS011;6039;52.576;13.348;2023-07-30T04:24:51;6.33;;;4.13;;
11957;SDS011;6039;52.576;13.348;2023-07-30T04:29:55;5.03;;;3.83;;
11957;SDS011;6039;52.576;13.348;2023-07-30T04:34:59;6.13;;;4.17;;
11957;SDS011;6039;52.576;13.348;2023-07-30T04:40:07;5.20;;;3.80;;
11957;SDS011;6039;52.576;13.348;2023-07-30T04:45:12;5.57;;;4.23;;
11957;SDS011;6039;52.576;13.348;2023-07-30T04:50:16;5.33;;;4.07;;
11957;SDS011;6039;52.576;13.348;2023-07-30T04:55:22;4.40;;;3.90;;
11957;SDS011;6039;52.576;13.348;2023-07-30T05:00:26;4.87;;;4.00;;
11957;SDS011;6039;52.576;13.348;2023-07-30T05:05:30;4.80;;;4.20;;
11957;SDS011;6039;52.576;13.348;2023-07-30T05:10:37;5.77;;;4.40;;
11957;SDS011;6039;52.576;13.348;2023-07-30T05:15:41;5.23;;;4.03;;
11957;SDS011;6039;52.576;13.348;2023-07-30T05:20:45;5.00;;;4.47;;
11957;SDS011;6039;52.576;13.348;2023-07-30T05:25:52;4.17;;;3.50;;
11957;SDS011;6039;52.576;13.348;2023-07-30T05:30:56;4.37;;;3.40;;
11957;SDS011;6039;52.576;13.348;2023-07-30T05:35:59;3.80;;;3.47;;
11957;SDS011;6039;52.576;13.348;2023-07-30T05:41:06;3.53;;;3.23;;
11957;SDS011;6039;52.576;13.348;2023-07-30T05:46:10;3.67;;;3.33;;
11957;SDS011;6039;52.576;13.348;2023-07-30T05:51:14;4.00;;;3.60;;
11957;SDS011;6039;52.576;13.348;2023-07-30T05:56:21;3.50;;;3.20;;
11957;SDS011;6039;52.576;13.348;2023-07-30T06:01:25;3.23;;;2.90;;
11957;SDS011;6039;52.576;13.348;2023-07-30T06:06:29;3.30;;;3.00;;
11957;SDS011;6039;52.576;13.348;2023-07-30T06:11:35;3.10;;;2.80;;
11957;SDS011;6039;52.576;13.348;2023-07-30T06:16:39;3.00;;;2.70;;
11957;SDS011;6039;52.576;13.348;2023-07-30T06:21:43;4.17;;;2.47;;
11957;SDS011;6039;52.576;13.348;2023-07-30T06:26:50;2.97;;;2.67;;
11957;SDS011;6039;52.576;13.348;2023-07-30T06:31:54;2.60;;;2.40;;
11957;SDS011;6039;52.576;13.348;2023-07-30T06:36:58;3.60;;;2.90;;
11957;SDS011;6039;52.576;13.348;2023-07-30T06:42:04;2.90;;;2.40;;
11957;SDS011;6039;52.576;13.348;2023-07-30T06:47:09;2.90;;;2.60;;
11957;SDS011;6039;52.576;13.348;2023-07-30T06:52:13;3.23;;;2.57;;
11957;SDS011;6039;52.576;13.348;2023-07-30T06:57:19;2.57;;;2.37;;
11957;SDS011;6039;52.576;13.348;2023-07-30T07:02:23;4.73;;;2.10;;
11957;SDS011;6039;52.576;13.348;2023-07-30T07:07:27;2.60;;;2.40;;
11957;SDS011;6039;52.576;13.348;2023-07-30T07:12:33;3.40;;;2.63;;
11957;SDS011;6039;52.576;13.348;2023-07-30T07:17:37;2.37;;;2.17;;
11957;SDS011;6039;52.576;13.348;2023-07-30T07:22:41;2.60;;;2.40;;
11957;SDS011;6039;52.576;13.348;2023-07-30T07:27:48;2.40;;;2.20;;
11957;SDS011;6039;52.576;13.348;2023-07-30T07:32:52;2.43;;;2.17;;
11957;SDS011;6039;52.576;13.348;2023-07-30T07:37:56;3.00;;;2.30;;
11957;SDS011;6039;52.576;13.348;2023-07-30T07:43:03;2.40;;;2.20;;
11957;SDS011;6039;52.576;13.348;2023-07-30T07:48:07;3.47;;;2.60;;
11957;SDS011;6039;52.576;13.348;2023-07-30T07:53:11;3.20;;;2.47;;
11957;SDS011;6039;52.576;13.348;2023-07-30T07:58:17;2.40;;;2.20;;
11957;SDS011;6039;52.576;13.348;2023-07-30T08:03:22;2.37;;;2.10;;
11957;SDS011;6039;52.576;13.348;2023-07-30T08:08:26;2.80;;;2.50;;
11957;SDS011;6039;52.576;13.348;2023-07-30T08:13:33;3.58;;;2.40;;
11957;SDS011;6039;52.576;13.348;2023-07-30T08:18:37;2.53;;;2.30;;
11957;SDS011;6039;52.576;13.348;2023-07-30T08:23:41;2.70;;;2.33;;
11957;SDS011;6039;52.576;13.348;2023-07-30T08:28:48;2.20;;;2.00;;
11957;SDS011;6039;52.576;13.348;2023-07-30T08:33:52;2.33;;;2.05;;
11957;SDS011;6039;52.576;13.348;2023-07-30T08:38:57;2.43;;;2.00;;
11957;SDS011;6039;52.576;13.348;2023-07-30T08:44:03;2.37;;;1.90;;
11957;SDS011;6039;52.576;13.348;2023-07-30T08:49:08;1.70;;;1.60;;
11957;SDS011;6039;52.576;13.348;2023-07-30T08:54:12;5.35;;;2.10;;
11957;SDS011;6039;52.576;13.348;2023-07-30T08:59:18;4.68;;;1.80;;
11957;SDS011;6039;52.576;13.348;2023-07-30T09:04:23;3.67;;;1.73;;
11957;SDS011;6039;52.576;13.348;2023-07-30T09:09:27;2.17;;;1.98;;
11957;SDS011;6039;52.576;13.348;2023-07-30T09:14:34;3.22;;;1.95;;
11957;SDS011;6039;52.576;13.348;2023-07-30T09:19:38;1.80;;;1.65;;
11957;SDS011;6039;52.576;13.348;2023-07-30T09:24:43;2.08;;;1.80;;
11957;SDS011;6039;52.576;13.348;2023-07-30T09:29:52;2.13;;;1.92;;
11957;SDS011;6039;52.576;13.348;2023-07-30T09:35:03;2.53;;;1.80;;
11957;SDS011;6039;52.576;13.348;2023-07-30T09:40:09;1.80;;;1.57;;
11957;SDS011;6039;52.576;13.348;2023-07-30T09:45:20;2.30;;;1.80;;
11957;SDS011;6039;52.576;13.348;2023-07-30T09:50:26;3.30;;;1.90;;
11957;SDS011;6039;52.576;13.348;2023-07-30T09:55:30;3.05;;;1.77;;
11957;SDS011;6039;52.576;13.348;2023-07-30T10:00:36;3.03;;;1.70;;
11957;SDS011;6039;52.576;13.348;2023-07-30T10:05:41;2.73;;;2.23;;
11957;SDS011;6039;52.576;13.348;2023-07-30T10:10:47;1.92;;;1.70;;
11957;SDS011;6039;52.576;13.348;2023-07-30T10:15:55;2.75;;;1.92;;
11957;SDS011;6039;52.576;13.348;2023-07-30T10:20:59;2.17;;;1.75;;
11957;SDS011;6039;52.576;13.348;2023-07-30T10:26:08;2.25;;;1.80;;
11957;SDS011;6039;52.576;13.348;2023-07-30T10:31:15;2.90;;;2.17;;
11957;SDS011;6039;52.576;13.348;2023-07-30T10:36:30;2.10;;;1.90;;
11957;SDS011;6039;52.576;13.348;2023-07-30T10:41:34;2.87;;;1.70;;
11957;SDS011;6039;52.576;13.348;2023-07-30T10:46:43;2.63;;;1.60;;
11957;SDS011;6039;52.576;13.348;2023-07-30T10:51:47;2.73;;;1.97;;
11957;SDS011;6039;52.576;13.348;2023-07-30T10:56:51;2.20;;;1.50;;
11957;SDS011;6039;52.576;13.348;2023-07-30T11:01:57;2.50;;;1.80;;
11957;SDS011;6039;52.576;13.348;2023-07-30T11:07:02;3.93;;;1.83;;
11957;SDS011;6039;52.576;13.348;2023-07-30T11:12:08;3.50;;;2.00;;
11957;SDS011;6039;52.576;13.348;2023-07-30T11:17:15;4.13;;;1.90;;
11957;SDS011;6039;52.576;13.348;2023-07-30T11:22:28;2.88;;;1.55;;
11957;SDS011;6039;52.576;13.348;2023-07-30T11:27:44;2.55;;;1.73;;
11957;SDS011;6039;52.576;13.348;2023-07-30T11:32:51;2.75;;;1.80;;
11957;SDS011;6039;52.576;13.348;2023-07-30T11:37:55;2.43;;;1.67;;
11957;SDS011;6039;52.576;13.348;2023-07-30T11:42:59;2.88;;;1.60;;
11957;SDS011;6039;52.576;13.348;2023-07-30T11:48:09;1.87;;;1.50;;
11957;SDS011;6039;52.576;13.348;2023-07-30T11:53:14;3.00;;;1.80;;
11957;SDS011;6039;52.576;13.348;2023-07-30T11:58:19;2.77;;;1.60;;
11957;SDS011;6039;52.576;13.348;2023-07-30T12:03:26;2.05;;;1.60;;
11957;SDS011;6039;52.576;13.348;2023-07-30T12:08:29;3.20;;;1.50;;
11957;SDS011;6039;52.576;13.348;2023-07-30T12:13:34;2.47;;;1.63;;
11957;SDS011;6039;52.576;13.348;2023-07-30T12:18:48;2.20;;;1.52;;
11957;SDS011;6039;52.576;13.348;2023-07-30T12:23:51;2.28;;;1.70;;
11957;SDS011;6039;52.576;13.348;2023-07-30T12:28:55;2.93;;;1.77;;
11957;SDS011;6039;52.576;13.348;2023-07-30T12:34:02;1.90;;;1.65;;
11957;SDS011;6039;52.576;13.348;2023-07-30T12:39:06;3.10;;;1.90;;
11957;SDS011;6039;52.576;13.348;2023-07-30T12:44:10;3.03;;;1.80;;
11957;SDS011;6039;52.576;13.348;2023-07-30T12:49:16;2.00;;;1.70;;
11957;SDS011;6039;52.576;13.348;2023-07-30T12:54:20;2.10;;;1.80;;
11957;SDS011;6039;52.576;13.348;2023-07-30T12:59:24;2.30;;;2.10;;
11957;SDS011;6039;52.576;13.348;2023-07-30T13:04:31;2.23;;;1.80;;
11957;SDS011;6039;52.576;13.348;2023-07-30T13:09:35;3.37;;;1.90;;
11957;SDS011;6039;52.576;13.348;2023-07-30T13:14:39;2.63;;;1.90;;
11957;SDS011;6039;52.576;13.348;2023-07-30T13:19:45;2.13;;;1.93;;
11957;SDS011;6039;52.576;13.348;2023-07-30T13:24:49;2.53;;;2.07;;
11957;SDS011;6039;52.576;13.348;2023-07-30T13:29:53;3.88;;;2.20;;
11957;SDS011;6039;52.576;13.348;2023-07-30T13:35:00;3.05;;;1.70;;
11957;SDS011;6039;52.576;13.348;2023-07-30T13:40:04;2.80;;;1.87;;
11957;SDS011;6039;52.576;13.348;2023-07-30T13:45:09;2.70;;;2.00;;
11957;SDS011;6039;52.576;13.348;2023-07-30T13:50:16;2.80;;;2.00;;
11957;SDS011;6039;52.576;13.348;2023-07-30T13:55:20;3.90;;;1.87;;
11957;SDS011;6039;52.576;13.348;2023-07-30T14:00:24;2.23;;;1.50;;
11957;SDS011;6039;52.576;13.348;2023-07-30T14:05:31;3.13;;;1.80;;
11957;SDS011;6039;52.576;13.348;2023-07-30T14:10:35;2.10;;;1.30;;
11957;SDS011;6039;52.576;13.348;2023-07-30T14:15:39;3.93;;;1.40;;
11957;SDS011;6039;52.576;13.348;2023-07-30T14:20:45;3.13;;;1.20;;
11957;SDS011;6039;52.576;13.348;2023-07-30T14:25:49;1.77;;;1.30;;
11957;SDS011;6039;52.576;13.348;2023-07-30T14:30:53;1.77;;;1.33;;
11957;SDS011;6039;52.576;13.348;2023-07-30T14:36:00;3.00;;;1.30;;
11957;SDS011;6039;52.576;13.348;2023-07-30T14:41:04;2.10;;;1.20;;
11957;SDS011;6039;52.576;13.348;2023-07-30T14:46:09;1.40;;;1.23;;
11957;SDS011;6039;52.576;13.348;2023-07-30T14:51:17;1.87;;;1.40;;
11957;SDS011;6039;52.576;13.348;2023-07-30T14:56:21;1.63;;;1.20;;
11957;SDS011;6039;52.576;13.348;2023-07-30T15:01:27;4.63;;;1.30;;
11957;SDS011;6039;52.576;13.348;2023-07-30T15:06:34;1.93;;;1.40;;
11957;SDS011;6039;52.576;13.348;2023-07-30T15:11:39;2.57;;;1.80;;
11957;SDS011;6039;52.576;13.348;2023-07-30T15:16:43;1.57;;;1.10;;
11957;SDS011;6039;52.576;13.348;2023-07-30T15:21:49;4.47;;;1.47;;
11957;SDS011;6039;52.576;13.348;2023-07-30T15:26:53;1.83;;;1.30;;
11957;SDS011;6039;52.576;13.348;2023-07-30T15:31:57;2.23;;;1.27;;
11957;SDS011;6039;52.576;13.348;2023-07-30T15:37:04;2.77;;;1.60;;
11957;SDS011;6039;52.576;13.348;2023-07-30T15:42:08;1.40;;;1.20;;
11957;SDS011;6039;52.576;13.348;2023-07-30T15:47:12;1.53;;;1.30;;
11957;SDS011;6039;52.576;13.348;2023-07-30T15:52:19;3.10;;;1.50;;
11957;SDS011;6039;52.576;13.348;2023-07-30T15:57:23;2.13;;;1.30;;
11957;SDS011;6039;52.576;13.348;2023-07-30T16:02:27;1.53;;;1.30;;
11957;SDS011;6039;52.576;13.348;2023-07-30T16:07:34;2.70;;;1.37;;
11957;SDS011;6039;52.576;13.348;2023-07-30T16:12:38;1.47;;;1.20;;
11957;SDS011;6039;52.576;13.348;2023-07-30T16:17:42;2.30;;;1.30;;
11957;SDS011;6039;52.576;13.348;2023-07-30T16:22:49;1.53;;;1.40;;
11957;SDS011;6039;52.576;13.348;2023-07-30T16:27:53;1.73;;;1.30;;
11957;SDS011;6039;52.576;13.348;2023-07-30T16:32:57;2.40;;;1.40;;
11957;SDS011;6039;52.576;13.348;2023-07-30T16:38:03;1.80;;;1.60;;
11957;SDS011;6039;52.576;13.348;2023-07-30T16:43:07;2.13;;;1.60;;
11957;SDS011;6039;52.576;13.348;2023-07-30T16:48:12;2.27;;;1.63;;
11957;SDS011;6039;52.576;13.348;2023-07-30T16:53:18;2.30;;;1.53;;
11957;SDS011;6039;52.576;13.348;2023-07-30T16:58:22;2.10;;;1.60;;
11957;SDS011;6039;52.576;13.348;2023-07-30T17:03:26;3.27;;;2.07;;
11957;SDS011;6039;52.576;13.348;2023-07-30T17:08:33;3.27;;;1.93;;
11957;SDS011;6039;52.576;13.348;2023-07-30T17:13:38;3.53;;;1.83;;
11957;SDS011;6039;52.576;13.348;2023-07-30T17:18:44;3.43;;;1.90;;
11957;SDS011;6039;52.576;13.348;2023-07-30T17:23:53;1.93;;;1.40;;
11957;SDS011;6039;52.576;13.348;2023-07-30T17:28:57;4.00;;;1.77;;
11957;SDS011;6039;52.576;13.348;2023-07-30T17:34:01;2.33;;;1.83;;
11957;SDS011;6039;52.576;13.348;2023-07-30T17:39:07;2.43;;;1.87;;
11957;SDS011;6039;52.576;13.348;2023-07-30T17:44:11;3.43;;;1.77;;
11957;SDS011;6039;52.576;13.348;2023-07-30T17:49:15;2.60;;;1.90;;
11957;SDS011;6039;52.576;13.348;2023-07-30T17:54:22;3.77;;;2.00;;
11957;SDS011;6039;52.576;13.348;2023-07-30T17:59:26;2.40;;;1.90;;
11957;SDS011;6039;52.576;13.348;2023-07-30T18:04:30;2.87;;;1.97;;
11957;SDS011;6039;52.576;13.348;2023-07-30T18:09:36;2.73;;;2.20;;
11957;SDS011;6039;52.576;13.348;2023-07-30T18:14:40;2.87;;;1.90;;
11957;SDS011;6039;52.576;13.348;2023-07-30T18:19:44;2.07;;;1.87;;
11957;SDS011;6039;52.576;13.348;2023-07-30T18:24:50;5.30;;;1.87;;
11957;SDS011;6039;52.576;13.348;2023-07-30T18:29:54;2.30;;;2.00;;
11957;SDS011;6039;52.576;13.348;2023-07-30T18:34:58;2.30;;;1.93;;
11957;SDS011;6039;52.576;13.348;2023-07-30T18:40:06;3.30;;;2.13;;
11957;SDS011;6039;52.576;13.348;2023-07-30T18:45:10;5.70;;;1.80;;
11957;SDS011;6039;52.576;13.348;2023-07-30T18:50:14;2.70;;;1.87;;
11957;SDS011;6039;52.576;13.348;2023-07-30T18:55:21;2.90;;;2.13;;
11957;SDS011;6039;52.576;13.348;2023-07-30T19:00:25;3.37;;;2.30;;
11957;SDS011;6039;52.576;13.348;2023-07-30T19:05:30;3.90;;;2.23;;
11957;SDS011;6039;52.576;13.348;2023-07-30T19:10:36;2.63;;;1.90;;
11957;SDS011;6039;52.576;13.348;2023-07-30T19:15:40;2.27;;;2.00;;
11957;SDS011;6039;52.576;13.348;2023-07-30T19:20:44;4.73;;;2.90;;
11957;SDS011;6039;52.576;13.348;2023-07-30T19:25:53;6.03;;;3.10;;
11957;SDS011;6039;52.576;13.348;2023-07-30T19:30:57;3.70;;;2.47;;
11957;SDS011;6039;52.576;13.348;2023-07-30T19:36:01;6.13;;;3.00;;
11957;SDS011;6039;52.576;13.348;2023-07-30T19:41:08;4.13;;;2.70;;
11957;SDS011;6039;52.576;13.348;2023-07-30T19:46:12;3.23;;;2.53;;
11957;SDS011;6039;52.576;13.348;2023-07-30T19:51:16;5.17;;;2.80;;
11957;SDS011;6039;52.576;13.348;2023-07-30T19:56:23;4.33;;;2.40;;
11957;SDS011;6039;52.576;13.348;2023-07-30T20:01:27;3.80;;;2.63;;
11957;SDS011;6039;52.576;13.348;2023-07-30T20:06:31;3.33;;;2.30;;
11957;SDS011;6039;52.576;13.348;2023-07-30T20:11:37;4.40;;;2.87;;
11957;SDS011;6039;52.576;13.348;2023-07-30T20:16:41;4.93;;;2.70;;
11957;SDS011;6039;52.576;13.348;2023-07-30T20:21:45;4.53;;;2.60;;
11957;SDS011;6039;52.576;13.348;2023-07-30T20:26:52;4.77;;;2.70;;
11957;SDS011;6039;52.576;13.348;2023-07-30T20:31:55;4.30;;;2.63;;
11957;SDS011;6039;52.576;13.348;2023-07-30T20:36:59;4.00;;;3.03;;
11957;SDS011;6039;52.576;13.348;2023-07-30T20:42:06;3.53;;;2.90;;
11957;SDS011;6039;52.576;13.348;2023-07-30T20:47:10;3.00;;;2.70;;
11957;SDS011;6039;52.576;13.348;2023-07-30T20:52:14;6.03;;;3.20;;
11957;SDS011;6039;52.576;13.348;2023-07-30T20:57:22;5.40;;;3.40;;
11957;SDS011;6039;52.576;13.348;2023-07-30T21:02:26;3.97;;;2.90;;
11957;SDS011;6039;52.576;13.348;2023-07-30T21:07:30;5.47;;;3.40;;
11957;SDS011;6039;52.576;13.348;2023-07-30T21:12:36;5.43;;;3.20;;
11957;SDS011;6039;52.576;13.348;2023-07-30T21:17:41;4.33;;;3.60;;
11957;SDS011;6039;52.576;13.348;2023-07-30T21:22:45;6.87;;;3.20;;
11957;SDS011;6039;52.576;13.348;2023-07-30T21:27:51;4.97;;;3.27;;
11957;SDS011;6039;52.576;13.348;2023-07-30T21:32:55;5.13;;;2.93;;
11957;SDS011;6039;52.576;13.348;2023-07-30T21:38:00;5.43;;;3.13;;
11957;SDS011;6039;52.576;13.348;2023-07-30T21:43:07;3.57;;;2.70;;
11957;SDS011;6039;52.576;13.348;2023-07-30T21:48:11;5.20;;;2.63;;
11957;SDS011;6039;52.576;13.348;2023-07-30T21:53:15;3.37;;;2.43;;
11957;SDS011;6039;52.576;13.348;2023-07-30T21:58:22;4.00;;;2.17;;
11957;SDS011;6039;52.576;13.348;2023-07-30T22:03:26;3.23;;;2.00;;
11957;SDS011;6039;52.576;13.348;2023-07-30T22:08:30;2.60;;;1.97;;
11957;SDS011;6039;52.576;13.348;2023-07-30T22:13:37;2.67;;;1.70;;
11957;SDS011;6039;52.576;13.348;2023-07-30T22:18:41;1.93;;;1.50;;
11957;SDS011;6039;52.576;13.348;2023-07-30T22:23:45;3.83;;;1.80;;
11957;SDS011;6039;52.576;13.348;2023-07-30T22:28:52;3.70;;;1.50;;
11957;SDS011;6039;52.576;13.348;2023-07-30T22:33:56;1.67;;;1.53;;
11957;SDS011;6039;52.576;13.348;2023-07-30T22:39:00;2.23;;;1.40;;
11957;SDS011;6039;52.576;13.348;2023-07-30T22:44:07;4.33;;;1.70;;
11957;SDS011;6039;52.576;13.348;2023-07-30T22:49:10;2.10;;;1.70;;
11957;SDS011;6039;52.576;13.348;2023-07-30T22:54:14;1.90;;;1.47;;
11957;SDS011;6039;52.576;13.348;2023-07-30T22:59:21;2.03;;;1.63;;
11957;SDS011;6039;52.576;13.348;2023-07-30T23:04:25;2.47;;;1.60;;
11957;SDS011;6039;52.576;13.348;2023-07-30T23:09:29;3.43;;;1.60;;
11957;SDS011;6039;52.576;13.348;2023-07-30T23:14:35;4.00;;;1.60;;
11957;SDS011;6039;52.576;13.348;2023-07-30T23:19:39;2.10;;;1.50;;
11957;SDS011;6039;52.576;13.348;2023-07-30T23:24:43;3.90;;;1.43;;
11957;SDS011;6039;52.576;13.348;2023-07-30T23:29:50;2.60;;;1.70;;
11957;SDS011;6039;52.576;13.348;2023-07-30T23:34:54;3.63;;;1.53;;
11957;SDS011;6039;52.576;13.348;2023-07-30T23:39:58;3.13;;;1.60;;
11957;SDS011;6039;52.576;13.348;2023-07-30T23:45:05;3.17;;;1.60;;
11957;SDS011;6039;52.576;13.348;2023-07-30T23:50:10;2.03;;;1.83;;
11957;SDS011;6039;52.576;13.348;2023-07-30T23:55:14;2.80;;;1.60;;
